Time;durP1;ratioP1;P1;durP2;ratioP2;P2;SDS_P1;SDS_P2;PMS_P1;PMS_P2;Temp;Humidity;BMP_temperature;BMP_pressure;BME280_temperature;BME280_humidity;BME280_pressure;Samples;Min_cycle;Max_cycle;Signal;HPM_P1;HPM_P2
2021/10/21 00:02:15;;;;;;;28.50;3.53;;;12.00;99.90;;;;;;5068189;28;20055;-80
2021/10/21 00:04:41;;;;;;;29.95;4.18;;;12.00;99.90;;;;;;5069422;28;20044;-80
2021/10/21 00:07:07;;;;;;;26.92;4.47;;;12.00;99.90;;;;;;5064908;28;20047;-80
2021/10/21 00:09:33;;;;;;;28.80;5.45;;;11.90;99.90;;;;;;5064869;28;20052;-81
2021/10/21 00:11:58;;;;;;;27.60;3.42;;;11.90;99.90;;;;;;5060073;28;20428;-80
2021/10/21 00:14:24;;;;;;;29.38;3.72;;;11.90;99.90;;;;;;5056185;28;20044;-79
2021/10/21 00:16:50;;;;;;;20.25;3.60;;;11.90;99.90;;;;;;5068177;28;20040;-80
2021/10/21 00:19:16;;;;;;;34.78;3.90;;;11.90;99.90;;;;;;5069622;28;20040;-80
2021/10/21 00:21:42;;;;;;;18.67;3.20;;;11.80;99.90;;;;;;5055211;28;20371;-80
2021/10/21 00:24:07;;;;;;;21.95;3.20;;;11.90;99.90;;;;;;5069418;28;20075;-79
2021/10/21 00:26:33;;;;;;;20.27;3.47;;;11.90;99.90;;;;;;5069959;28;20518;-80
2021/10/21 00:28:59;;;;;;;21.88;3.67;;;11.80;99.90;;;;;;5067745;28;20127;-80
2021/10/21 00:31:24;;;;;;;25.17;4.07;;;11.80;99.90;;;;;;5069108;28;20106;-80
2021/10/21 00:33:50;;;;;;;24.10;4.47;;;11.80;99.90;;;;;;5067274;28;20390;-81
2021/10/21 00:36:16;;;;;;;19.50;3.45;;;11.90;99.90;;;;;;5068819;28;20510;-80
2021/10/21 00:38:42;;;;;;;22.17;3.17;;;11.90;99.90;;;;;;5063498;28;20127;-80
2021/10/21 00:41:07;;;;;;;35.30;4.10;;;11.90;99.90;;;;;;5061497;28;20036;-81
2021/10/21 00:43:37;;;;;;;37.47;4.68;;;11.90;99.90;;;;;;5049835;28;20040;-80
2021/10/21 00:46:08;;;;;;;26.23;3.58;;;11.90;99.90;;;;;;5067733;28;20089;-80
2021/10/21 00:48:34;;;;;;;27.25;4.22;;;11.90;99.90;;;;;;5069833;28;20048;-78
2021/10/21 00:51:01;;;;;;;28.58;6.47;;;11.90;99.90;;;;;;5067630;28;20561;-79
2021/10/21 00:53:29;;;;;;;33.88;9.27;;;11.90;99.90;;;;;;5069828;28;20045;-79
2021/10/21 00:55:55;;;;;;;43.67;8.73;;;12.00;99.90;;;;;;5067672;28;20051;-79
2021/10/21 00:58:21;;;;;;;29.17;7.80;;;12.00;99.90;;;;;;5067675;28;20105;-79
2021/10/21 01:00:48;;;;;;;34.25;7.05;;;12.00;99.90;;;;;;5068424;28;20128;-78
2021/10/21 01:03:13;;;;;;;36.20;7.43;;;12.00;99.90;;;;;;5067964;28;20091;-79
2021/10/21 01:05:39;;;;;;;36.28;8.02;;;12.00;99.90;;;;;;5067754;28;20049;-80
2021/10/21 01:08:05;;;;;;;37.53;6.78;;;12.00;99.90;;;;;;5067106;28;20052;-80
2021/10/21 01:10:32;;;;;;;26.83;6.57;;;12.00;99.90;;;;;;5068629;28;20048;-80
2021/10/21 01:12:58;;;;;;;29.75;6.47;;;12.00;99.90;;;;;;5053095;28;20055;-80
2021/10/21 01:15:26;;;;;;;36.90;8.07;;;12.00;99.90;;;;;;5069000;28;20048;-80
2021/10/21 01:17:54;;;;;;;29.90;7.63;;;12.00;99.90;;;;;;5068169;28;20037;-80
2021/10/21 01:20:21;;;;;;;30.10;7.68;;;12.00;99.90;;;;;;5067942;28;20058;-80
2021/10/21 01:22:47;;;;;;;41.58;9.18;;;12.00;99.90;;;;;;5068980;28;20086;-80
2021/10/21 01:25:15;;;;;;;23.48;8.20;;;12.00;99.90;;;;;;5066911;28;20044;-80
2021/10/21 01:27:45;;;;;;;30.38;9.38;;;12.00;99.90;;;;;;5067069;28;20044;-81
2021/10/21 01:30:25;;;;;;;42.63;10.88;;;12.00;99.90;;;;;;5066553;28;20513;-80
2021/10/21 01:32:52;;;;;;;33.85;9.38;;;12.00;99.90;;;;;;5064150;28;20044;-82
2021/10/21 01:35:18;;;;;;;38.67;11.10;;;12.00;99.90;;;;;;5068018;28;20032;-82
2021/10/21 01:37:46;;;;;;;27.05;6.65;;;11.90;99.90;;;;;;5067770;28;20398;-82
2021/10/21 01:40:14;;;;;;;17.35;3.30;;;11.90;99.90;;;;;;5067832;28;20076;-82
2021/10/21 01:42:41;;;;;;;16.40;7.13;;;11.80;99.90;;;;;;5066789;28;20048;-82
2021/10/21 01:45:20;;;;;;;38.15;12.13;;;11.70;99.90;;;;;;5068128;28;20391;-81
2021/10/21 01:47:46;;;;;;;29.73;8.73;;;11.70;99.90;;;;;;5067518;28;20055;-82
2021/10/21 01:50:12;;;;;;;56.25;12.15;;;11.80;99.90;;;;;;5066128;28;20501;-79
2021/10/21 01:52:39;;;;;;;70.78;16.55;;;11.80;99.90;;;;;;5067982;28;20166;-79
2021/10/21 01:55:06;;;;;;;85.47;18.10;;;11.80;99.90;;;;;;5065455;28;20047;-80
2021/10/21 01:57:31;;;;;;;92.35;17.27;;;11.90;99.90;;;;;;5067291;28;20545;-80
2021/10/21 01:59:57;;;;;;;47.25;13.43;;;11.90;99.90;;;;;;5065903;28;20158;-80
2021/10/21 02:02:23;;;;;;;63.67;15.25;;;11.90;99.90;;;;;;5067917;28;20398;-80
2021/10/21 02:04:49;;;;;;;59.83;13.95;;;12.00;99.90;;;;;;5066671;28;20040;-81
2021/10/21 02:07:15;;;;;;;46.63;12.80;;;11.90;99.90;;;;;;5067047;28;20051;-81
2021/10/21 02:09:40;;;;;;;66.05;17.63;;;11.90;99.90;;;;;;5067859;28;20048;-80
2021/10/21 02:12:06;;;;;;;98.93;21.15;;;11.90;99.90;;;;;;5065340;28;20044;-80
2021/10/21 02:14:32;;;;;;;41.42;12.27;;;12.00;99.90;;;;;;5067743;28;20033;-81
2021/10/21 02:16:58;;;;;;;56.05;15.63;;;12.00;99.90;;;;;;5065927;28;20051;-80
2021/10/21 02:19:24;;;;;;;31.30;12.52;;;11.90;99.90;;;;;;5067414;28;20052;-81
2021/10/21 02:21:50;;;;;;;32.92;12.45;;;12.00;99.90;;;;;;5064492;28;20052;-82
2021/10/21 02:24:16;;;;;;;27.60;10.02;;;11.90;99.90;;;;;;5067495;28;20044;-81
2021/10/21 02:26:41;;;;;;;27.70;9.25;;;12.00;99.90;;;;;;5065665;28;20131;-81
2021/10/21 02:29:07;;;;;;;21.27;6.45;;;11.90;99.90;;;;;;5066484;28;20893;-81
2021/10/21 02:31:33;;;;;;;21.70;6.72;;;11.80;99.90;;;;;;5066790;28;20044;-81
2021/10/21 02:33:58;;;;;;;23.25;6.28;;;11.80;99.90;;;;;;5065119;28;20044;-81
2021/10/21 02:36:24;;;;;;;18.13;4.93;;;11.70;99.90;;;;;;5063971;28;20552;-81
2021/10/21 02:38:50;;;;;;;28.50;5.82;;;11.70;99.90;;;;;;5054147;28;20040;-81
2021/10/21 02:41:16;;;;;;;22.58;5.30;;;11.70;99.90;;;;;;5060740;28;20062;-81
2021/10/21 02:43:42;;;;;;;24.00;5.82;;;11.70;99.90;;;;;;5057667;28;20051;-81
2021/10/21 02:46:08;;;;;;;32.65;7.10;;;11.60;99.90;;;;;;5046683;28;20052;-81
2021/10/21 02:48:35;;;;;;;27.70;7.80;;;11.70;99.90;;;;;;5047267;28;20047;-81
2021/10/21 02:51:00;;;;;;;22.73;8.00;;;11.70;99.90;;;;;;5050918;28;20048;-80
2021/10/21 02:53:26;;;;;;;32.25;7.95;;;11.80;99.90;;;;;;5050134;28;20040;-81
2021/10/21 02:55:53;;;;;;;22.13;7.22;;;11.80;99.90;;;;;;5052845;28;20076;-81
2021/10/21 02:58:19;;;;;;;8.50;4.50;;;11.90;99.90;;;;;;5057263;28;20105;-80
2021/10/21 03:00:44;;;;;;;8.43;4.18;;;12.00;99.90;;;;;;5048910;28;20045;-80
2021/10/21 03:03:10;;;;;;;7.47;3.40;;;12.00;99.90;;;;;;5053208;28;20056;-80
2021/10/21 03:05:36;;;;;;;9.88;4.40;;;12.00;99.90;;;;;;5046590;28;20432;-81
2021/10/21 03:08:01;;;;;;;8.07;2.95;;;12.00;99.90;;;;;;5045806;28;20490;-79
2021/10/21 03:10:27;;;;;;;4.50;1.30;;;12.00;99.90;;;;;;5059370;28;20081;-79
2021/10/21 03:12:53;;;;;;;1.48;0.70;;;11.90;99.90;;;;;;5064860;28;20131;-79
2021/10/21 03:15:19;;;;;;;4.07;1.00;;;11.80;99.90;;;;;;5066415;28;20037;-81
2021/10/21 03:17:44;;;;;;;3.65;1.23;;;11.60;99.90;;;;;;5064015;28;20052;-80
2021/10/21 03:20:13;;;;;;;2.75;0.70;;;11.60;99.90;;;;;;5064496;28;20466;-80
2021/10/21 03:22:40;;;;;;;7.70;1.05;;;11.50;99.90;;;;;;5066294;28;20044;-79
2021/10/21 03:25:07;;;;;;;2.47;0.55;;;11.30;99.90;;;;;;5065759;28;20044;-79
2021/10/21 03:27:34;;;;;;;2.08;0.70;;;11.30;99.90;;;;;;5067173;28;20052;-79
2021/10/21 03:30:00;;;;;;;5.75;1.02;;;11.20;99.90;;;;;;5063577;28;20119;-81
2021/10/21 03:32:26;;;;;;;7.40;1.38;;;11.20;99.90;;;;;;5066428;28;20462;-81
2021/10/21 03:34:52;;;;;;;7.03;1.10;;;11.10;99.90;;;;;;5063921;28;20046;-82
2021/10/21 03:37:17;;;;;;;7.43;1.35;;;11.10;99.90;;;;;;5066234;28;20047;-81
2021/10/21 03:39:43;;;;;;;4.22;0.75;;;11.10;99.90;;;;;;5066251;28;20044;-80
2021/10/21 03:42:09;;;;;;;4.65;1.20;;;11.10;99.90;;;;;;5066060;28;20052;-80
2021/10/21 03:44:38;;;;;;;5.40;1.05;;;11.00;99.90;;;;;;5066608;28;20045;-79
2021/10/21 03:47:04;;;;;;;8.13;1.40;;;11.00;99.90;;;;;;5051298;28;20436;-79
2021/10/21 03:49:30;;;;;;;5.30;1.08;;;10.90;99.90;;;;;;5066463;28;20132;-79
2021/10/21 03:51:56;;;;;;;5.18;0.80;;;10.90;99.90;;;;;;5046537;28;20048;-79
2021/10/21 03:54:22;;;;;;;6.97;1.08;;;10.90;99.90;;;;;;5066492;28;20076;-79
2021/10/21 03:56:48;;;;;;;6.80;1.05;;;10.90;99.90;;;;;;5065067;28;20086;-79
2021/10/21 03:59:14;;;;;;;6.13;1.08;;;10.80;99.90;;;;;;5066420;28;20037;-79
2021/10/21 04:01:40;;;;;;;9.10;0.98;;;10.80;99.90;;;;;;5047734;28;20132;-79
2021/10/21 04:04:06;;;;;;;10.27;0.95;;;10.80;99.90;;;;;;5065169;28;20123;-79
2021/10/21 04:06:32;;;;;;;3.40;0.93;;;10.70;99.90;;;;;;5066836;28;20210;-78
2021/10/21 04:08:58;;;;;;;7.25;0.88;;;10.70;99.90;;;;;;5064835;28;20456;-79
2021/10/21 04:11:24;;;;;;;12.45;1.08;;;10.70;99.90;;;;;;5066115;28;20060;-79
2021/10/21 04:13:50;;;;;;;4.30;1.00;;;10.70;99.90;;;;;;5065185;28;20049;-79
2021/10/21 04:16:15;;;;;;;8.60;1.38;;;10.60;99.90;;;;;;5065897;28;20040;-79
2021/10/21 04:18:41;;;;;;;7.25;1.15;;;10.50;99.90;;;;;;5066067;28;20123;-79
2021/10/21 04:21:07;;;;;;;3.28;0.90;;;10.50;99.90;;;;;;5069196;28;20048;-79
2021/10/21 04:23:32;;;;;;;6.63;1.33;;;10.50;99.90;;;;;;5068377;28;20402;-80
2021/10/21 04:25:58;;;;;;;9.55;0.90;;;10.50;99.90;;;;;;5068303;28;20055;-79
2021/10/21 04:28:24;;;;;;;8.40;0.90;;;10.40;99.90;;;;;;5069658;28;20217;-80
2021/10/21 04:30:50;;;;;;;8.85;0.93;;;10.50;99.90;;;;;;5068433;28;20044;-80
2021/10/21 04:33:15;;;;;;;7.07;0.88;;;10.40;99.90;;;;;;5068745;28;20583;-80
2021/10/21 04:35:41;;;;;;;7.95;1.10;;;10.40;99.90;;;;;;5068848;28;20050;-79
2021/10/21 04:38:07;;;;;;;10.07;1.00;;;10.30;99.90;;;;;;5069483;28;20041;-80
2021/10/21 04:40:32;;;;;;;5.38;1.08;;;10.30;99.90;;;;;;5067475;28;20047;-79
2021/10/21 04:42:59;;;;;;;5.15;0.47;;;10.30;99.90;;;;;;5068367;28;20214;-79
2021/10/21 04:45:25;;;;;;;12.45;1.20;;;10.20;99.90;;;;;;5068159;28;20130;-78
2021/10/21 04:47:56;;;;;;;4.43;0.50;;;10.30;99.90;;;;;;5066520;28;20410;-79
2021/10/21 04:50:23;;;;;;;6.72;0.57;;;10.20;99.90;;;;;;5068613;28;20044;-79
2021/10/21 04:52:52;;;;;;;4.20;0.80;;;10.20;99.90;;;;;;5067872;28;20474;-79
2021/10/21 04:55:20;;;;;;;4.25;0.63;;;10.20;99.90;;;;;;5068916;28;20049;-79
2021/10/21 04:57:47;;;;;;;7.25;0.95;;;10.20;99.90;;;;;;5067858;28;20044;-79
2021/10/21 05:00:14;;;;;;;2.47;0.50;;;10.20;99.90;;;;;;5066502;28;20101;-79
2021/10/21 05:02:40;;;;;;;4.55;0.63;;;10.20;99.90;;;;;;5067272;28;20044;-79
2021/10/21 05:05:06;;;;;;;1.42;0.60;;;10.20;99.90;;;;;;5068445;28;20395;-79
2021/10/21 05:07:32;;;;;;;1.58;0.60;;;10.30;99.90;;;;;;5069077;28;20111;-79
2021/10/21 05:09:57;;;;;;;3.63;0.82;;;10.30;99.90;;;;;;5059105;28;20051;-80
2021/10/21 05:12:23;;;;;;;3.42;0.55;;;10.20;99.90;;;;;;5063067;28;20139;-79
2021/10/21 05:14:49;;;;;;;5.05;0.82;;;10.20;99.90;;;;;;5068718;28;20067;-79
2021/10/21 05:17:16;;;;;;;1.13;0.60;;;10.20;99.90;;;;;;5067662;28;20044;-79
2021/10/21 05:19:42;;;;;;;7.78;1.15;;;10.20;99.90;;;;;;5068930;28;20134;-79
2021/10/21 05:22:08;;;;;;;7.30;1.05;;;10.20;99.90;;;;;;5066950;28;20040;-80
2021/10/21 05:24:33;;;;;;;4.88;0.75;;;10.20;99.90;;;;;;5067109;28;20048;-80
2021/10/21 05:26:59;;;;;;;7.20;1.50;;;10.20;99.90;;;;;;5067369;28;20043;-80
2021/10/21 05:29:26;;;;;;;14.40;2.58;;;10.20;99.90;;;;;;5068064;28;20045;-81
2021/10/21 05:31:52;;;;;;;9.27;1.15;;;10.30;99.90;;;;;;5067423;28;20110;-81
2021/10/21 05:34:18;;;;;;;8.68;1.10;;;10.30;99.90;;;;;;5066656;28;20052;-81
2021/10/21 05:36:44;;;;;;;20.50;2.00;;;10.30;99.90;;;;;;5068540;28;20043;-81
2021/10/21 05:39:10;;;;;;;19.23;2.03;;;10.30;99.90;;;;;;5065880;28;20058;-82
2021/10/21 05:41:36;;;;;;;23.10;1.50;;;10.00;99.90;;;;;;5067498;28;20391;-81
2021/10/21 05:44:02;;;;;;;11.43;2.05;;;9.80;99.90;;;;;;5065260;28;20549;-80
2021/10/21 05:46:27;;;;;;;8.10;1.63;;;9.80;99.90;;;;;;5067906;28;20044;-80
2021/10/21 05:48:53;;;;;;;21.50;2.00;;;9.70;99.90;;;;;;5067138;28;20234;-81
2021/10/21 05:51:19;;;;;;;37.78;3.80;;;9.40;99.90;;;;;;5067272;28;20118;-80
2021/10/21 05:53:45;;;;;;;23.70;1.88;;;9.20;99.90;;;;;;5067760;28;20090;-80
2021/10/21 05:56:11;;;;;;;27.90;2.80;;;9.20;99.90;;;;;;5067403;28;20545;-80
2021/10/21 05:58:38;;;;;;;18.02;1.95;;;9.20;99.90;;;;;;5067507;28;20427;-80
2021/10/21 06:01:05;;;;;;;21.48;2.03;;;9.30;99.90;;;;;;5066162;28;20506;-81
2021/10/21 06:03:35;;;;;;;21.25;3.03;;;9.30;99.90;;;;;;5068006;28;20119;-81
2021/10/21 06:06:03;;;;;;;17.58;1.58;;;9.20;99.90;;;;;;5066774;28;20509;-81
2021/10/21 06:08:29;;;;;;;24.42;1.80;;;9.00;99.90;;;;;;5067547;28;20048;-81
2021/10/21 06:10:55;;;;;;;27.98;1.92;;;9.00;99.90;;;;;;5053095;28;20115;-80
2021/10/21 06:13:20;;;;;;;23.30;1.70;;;8.90;99.90;;;;;;5066240;28;20727;-82
2021/10/21 06:15:46;;;;;;;16.42;2.00;;;8.90;99.90;;;;;;5083325;28;20140;-81
2021/10/21 06:18:13;;;;;;;21.73;2.60;;;8.90;99.90;;;;;;5066398;28;20037;-81
2021/10/21 06:20:42;;;;;;;21.08;2.55;;;8.90;99.90;;;;;;5067576;28;20044;-81
2021/10/21 06:23:08;;;;;;;31.45;2.58;;;8.90;99.90;;;;;;5065895;28;20048;-81
2021/10/21 06:25:34;;;;;;;31.23;3.05;;;9.00;99.90;;;;;;5058379;28;20055;-81
2021/10/21 06:27:59;;;;;;;35.45;3.50;;;9.00;99.90;;;;;;5060301;28;20487;-81
2021/10/21 06:30:25;;;;;;;29.88;3.47;;;9.00;99.90;;;;;;5057295;28;20045;-80
2021/10/21 06:32:51;;;;;;;49.97;7.20;;;9.00;99.90;;;;;;5049789;28;20402;-80
2021/10/21 06:35:17;;;;;;;31.88;6.93;;;9.10;99.90;;;;;;5044488;28;20059;-80
2021/10/21 06:37:49;;;;;;;44.70;6.70;;;9.20;99.90;;;;;;5047247;28;20048;-80
2021/10/21 06:40:16;;;;;;;36.42;5.30;;;9.20;99.90;;;;;;5045561;28;20049;-81
2021/10/21 06:42:42;;;;;;;26.02;4.00;;;9.20;99.90;;;;;;5046497;28;20040;-81
2021/10/21 06:45:11;;;;;;;19.23;3.90;;;9.30;99.90;;;;;;5057861;28;20479;-80
2021/10/21 06:47:43;;;;;;;29.80;5.78;;;9.30;99.90;;;;;;5055529;28;20134;-80
2021/10/21 06:50:11;;;;;;;21.02;5.15;;;9.30;99.90;;;;;;5055505;28;20055;-79
2021/10/21 06:52:37;;;;;;;15.43;3.78;;;9.40;99.90;;;;;;5047677;28;20861;-82
2021/10/21 06:55:03;;;;;;;10.98;3.53;;;9.30;99.90;;;;;;5047194;28;20068;-81
2021/10/21 06:57:29;;;;;;;18.27;3.10;;;9.30;99.90;;;;;;5044125;28;20045;-80
2021/10/21 06:59:55;;;;;;;17.15;2.63;;;9.30;99.90;;;;;;5070908;28;20540;-81
2021/10/21 07:02:21;;;;;;;22.10;3.90;;;9.30;99.90;;;;;;5052966;28;20055;-82
2021/10/21 07:04:46;;;;;;;17.08;2.85;;;9.30;99.90;;;;;;5048809;28;20052;-81
2021/10/21 07:07:12;;;;;;;23.60;3.92;;;9.40;99.90;;;;;;5047615;28;20059;-81
2021/10/21 07:09:38;;;;;;;18.67;3.95;;;9.40;99.90;;;;;;5045183;28;20057;-80
2021/10/21 07:12:04;;;;;;;20.60;3.50;;;9.40;99.90;;;;;;5058806;28;20060;-80
2021/10/21 07:14:30;;;;;;;16.90;3.17;;;9.40;99.90;;;;;;5064983;28;20032;-80
2021/10/21 07:16:56;;;;;;;12.07;2.88;;;9.40;99.90;;;;;;5067016;28;20048;-81
2021/10/21 07:19:22;;;;;;;19.25;3.08;;;9.50;99.90;;;;;;5065625;28;20044;-80
2021/10/21 07:21:47;;;;;;;11.63;2.17;;;9.40;99.90;;;;;;5065123;28;20048;-80
2021/10/21 07:24:13;;;;;;;14.23;2.67;;;9.50;99.90;;;;;;5066240;28;20047;-80
2021/10/21 07:26:41;;;;;;;14.57;1.52;;;9.50;99.90;;;;;;5065262;28;20534;-80
2021/10/21 07:29:07;;;;;;;7.03;1.55;;;9.50;99.90;;;;;;5066748;28;20127;-80
2021/10/21 07:31:33;;;;;;;11.40;2.05;;;9.50;99.90;;;;;;5064660;28;20493;-79
2021/10/21 07:33:59;;;;;;;13.90;1.90;;;9.60;99.90;;;;;;5065555;28;20131;-79
2021/10/21 07:36:25;;;;;;;15.32;1.52;;;9.60;99.90;;;;;;5063668;28;20056;-79
2021/10/21 07:38:51;;;;;;;15.02;1.60;;;9.60;99.90;;;;;;5066606;28;20036;-79
2021/10/21 07:41:18;;;;;;;21.92;2.53;;;9.60;99.90;;;;;;5065840;28;20573;-79
2021/10/21 07:43:44;;;;;;;16.33;1.65;;;9.70;99.90;;;;;;5065777;28;20120;-79
2021/10/21 07:46:10;;;;;;;18.25;2.92;;;9.70;99.90;;;;;;5067130;28;20120;-79
2021/10/21 07:48:36;;;;;;;20.75;2.90;;;9.70;99.90;;;;;;5064107;28;20131;-79
2021/10/21 07:51:03;;;;;;;10.75;1.73;;;9.80;99.90;;;;;;5066508;28;20124;-79
2021/10/21 07:53:32;;;;;;;19.75;2.47;;;9.90;99.90;;;;;;5052370;28;20116;-79
2021/10/21 07:55:58;;;;;;;18.35;1.98;;;10.00;99.90;;;;;;5068664;28;20041;-79
2021/10/21 07:58:24;;;;;;;18.08;2.03;;;10.00;99.90;;;;;;5062930;28;20372;-79
2021/10/21 08:00:50;;;;;;;16.50;3.08;;;10.10;99.90;;;;;;5066919;28;20040;-82
2021/10/21 08:03:18;;;;;;;11.80;2.42;;;10.10;99.90;;;;;;5056931;28;20123;-80
2021/10/21 08:05:44;;;;;;;22.27;2.92;;;10.00;99.90;;;;;;5052798;28;20033;-81
2021/10/21 08:08:10;;;;;;;16.50;3.22;;;10.00;99.90;;;;;;5050247;28;20103;-79
2021/10/21 08:10:36;;;;;;;17.63;2.83;;;10.00;99.90;;;;;;5046885;28;20045;-79
2021/10/21 08:13:02;;;;;;;11.27;1.98;;;10.00;99.90;;;;;;5062093;28;20044;-80
2021/10/21 08:15:28;;;;;;;23.67;2.47;;;10.00;99.90;;;;;;5057215;28;20041;-79
2021/10/21 08:17:55;;;;;;;12.63;2.40;;;9.90;99.90;;;;;;5049858;28;20045;-79
2021/10/21 08:20:24;;;;;;;16.35;3.08;;;10.00;99.90;;;;;;5053374;28;20119;-81
2021/10/21 08:22:50;;;;;;;15.43;1.93;;;10.10;99.90;;;;;;5048302;28;20685;-81
2021/10/21 08:25:17;;;;;;;16.40;4.47;;;10.10;99.90;;;;;;5055388;28;20378;-81
2021/10/21 08:27:43;;;;;;;10.85;2.78;;;10.20;99.90;;;;;;5046927;28;20120;-81
2021/10/21 08:30:11;;;;;;;5.35;1.10;;;10.20;99.90;;;;;;5048579;28;20563;-80
2021/10/21 08:32:38;;;;;;;9.68;1.30;;;10.20;99.90;;;;;;5048734;28;20589;-81
2021/10/21 08:35:05;;;;;;;12.48;2.08;;;10.20;99.90;;;;;;5052247;28;20482;-80
2021/10/21 08:37:31;;;;;;;13.55;1.77;;;10.20;99.90;;;;;;5062567;28;20045;-80
2021/10/21 08:39:57;;;;;;;14.88;2.58;;;10.30;99.90;;;;;;5062845;28;20041;-81
2021/10/21 08:42:23;;;;;;;23.60;3.58;;;10.30;99.90;;;;;;5041835;28;20045;-80
2021/10/21 08:44:49;;;;;;;14.55;2.95;;;10.40;99.90;;;;;;5046769;28;20869;-80
2021/10/21 08:47:19;;;;;;;14.60;2.70;;;10.50;99.90;;;;;;5053716;28;20048;-81
2021/10/21 08:49:46;;;;;;;11.83;2.53;;;10.50;99.90;;;;;;5045962;28;20663;-81
2021/10/21 08:52:14;;;;;;;21.33;2.17;;;10.50;99.90;;;;;;5049185;28;20080;-80
2021/10/21 08:54:40;;;;;;;12.20;2.03;;;10.50;99.90;;;;;;5047115;28;20475;-80
2021/10/21 08:57:11;;;;;;;17.90;1.70;;;10.60;99.90;;;;;;5055210;28;20127;-80
2021/10/21 08:59:37;;;;;;;18.42;2.60;;;10.70;99.90;;;;;;5057252;28;20502;-80
2021/10/21 09:02:17;;;;;;;17.67;2.47;;;10.70;99.90;;;;;;5053043;28;20056;-81
2021/10/21 09:04:56;;;;;;;25.73;3.28;;;10.70;99.90;;;;;;5048121;28;20167;-80
2021/10/21 09:10:10;;;;;;;10.27;2.10;;;11.00;99.90;;;;;;5048024;28;20052;-83
2021/10/21 09:12:54;;;;;;;17.02;2.47;;;11.00;99.90;;;;;;5065311;28;20443;-82
2021/10/21 09:15:23;;;;;;;16.30;2.97;;;10.60;99.90;;;;;;5059878;28;20060;-81
2021/10/21 09:17:50;;;;;;;21.10;3.88;;;10.50;99.90;;;;;;5050264;28;20246;-80
2021/10/21 09:20:23;;;;;;;15.88;2.63;;;10.50;99.90;;;;;;5057847;28;20041;-79
2021/10/21 09:22:56;;;;;;;10.55;1.88;;;10.50;99.90;;;;;;5063389;28;20059;-82
2021/10/21 09:25:29;;;;;;;23.88;2.53;;;10.50;99.90;;;;;;5064514;28;20135;-82
2021/10/21 09:27:58;;;;;;;13.48;2.45;;;10.50;99.90;;;;;;5051839;28;20391;-82
2021/10/21 09:30:27;;;;;;;15.50;2.40;;;10.50;99.90;;;;;;5066285;28;20486;-82
2021/10/21 09:32:53;;;;;;;11.90;2.00;;;10.50;99.90;;;;;;5050511;28;20045;-82
2021/10/21 09:35:21;;;;;;;18.67;3.25;;;10.50;99.90;;;;;;5047495;28;20057;-82
2021/10/21 09:37:48;;;;;;;9.90;1.65;;;10.50;99.90;;;;;;5055070;28;20044;-82
2021/10/21 09:40:28;;;;;;;18.25;2.72;;;10.60;99.90;;;;;;5047606;28;20052;-82
2021/10/21 09:43:02;;;;;;;12.05;2.00;;;10.80;99.90;;;;;;5048461;28;20534;-82
2021/10/21 09:45:36;;;;;;;16.13;3.05;;;10.90;99.90;;;;;;5046697;28;20040;-82
2021/10/21 09:48:04;;;;;;;13.20;2.30;;;10.90;99.90;;;;;;5053457;28;20036;-82
2021/10/21 09:50:36;;;;;;;13.02;2.13;;;10.90;99.90;;;;;;5062510;28;20107;-82
2021/10/21 09:53:31;;;;;;;17.48;2.63;;;11.10;99.90;;;;;;5045897;28;20088;-82
2021/10/21 09:56:00;;;;;;;15.63;2.17;;;11.30;99.90;;;;;;5048114;28;20369;-82
2021/10/21 09:58:40;;;;;;;20.63;3.10;;;11.50;99.90;;;;;;5048520;28;20568;-82
2021/10/21 10:01:07;;;;;;;11.77;1.75;;;11.60;99.90;;;;;;5049620;28;20036;-82
2021/10/21 10:03:35;;;;;;;11.88;2.33;;;11.70;99.90;;;;;;5051648;28;20041;-82
2021/10/21 10:06:01;;;;;;;7.63;1.90;;;11.80;99.90;;;;;;5046641;28;20045;-82
2021/10/21 10:08:30;;;;;;;19.25;2.10;;;11.80;99.90;;;;;;5047987;28;20060;-82
2021/10/21 10:10:59;;;;;;;8.20;2.22;;;11.80;99.90;;;;;;5047880;28;20132;-82
2021/10/21 10:13:27;;;;;;;12.70;2.92;;;11.70;99.90;;;;;;5067621;28;20048;-82
2021/10/21 10:15:55;;;;;;;10.95;3.00;;;11.70;99.90;;;;;;5064580;28;20044;-82
2021/10/21 10:18:21;;;;;;;12.27;2.28;;;11.60;99.90;;;;;;5051648;28;20139;-79
2021/10/21 10:20:52;;;;;;;22.38;3.58;;;11.60;99.90;;;;;;5064900;28;20454;-80
2021/10/21 10:23:20;;;;;;;12.73;2.08;;;11.60;99.90;;;;;;5062087;28;20043;-80
2021/10/21 10:25:49;;;;;;;9.18;2.00;;;11.60;99.90;;;;;;5056569;28;20513;-80
2021/10/21 10:28:15;;;;;;;10.25;1.85;;;11.60;99.90;;;;;;5056420;28;20036;-80
2021/10/21 10:30:54;;;;;;;13.50;2.40;;;11.60;99.90;;;;;;5065721;28;20630;-80
2021/10/21 10:33:32;;;;;;;14.55;2.60;;;11.60;99.90;;;;;;5063979;28;20047;-81
2021/10/21 10:36:22;;;;;;;17.02;2.25;;;11.60;99.90;;;;;;5066058;28;20046;-80
2021/10/21 10:38:48;;;;;;;10.50;1.92;;;11.60;99.90;;;;;;5058606;28;20516;-80
2021/10/21 10:41:40;;;;;;;13.07;2.45;;;11.60;99.90;;;;;;5063362;28;20175;-81
2021/10/21 10:44:06;;;;;;;13.98;2.63;;;11.50;99.90;;;;;;5055138;28;20076;-82
2021/10/21 10:46:53;;;;;;;20.73;4.03;;;11.40;99.90;;;;;;5049932;28;20052;-83
2021/10/21 10:49:52;;;;;;;12.48;2.55;;;10.70;99.90;;;;;;5044818;28;20067;-83
2021/10/21 10:52:18;;;;;;;14.75;2.50;;;10.20;99.90;;;;;;5047341;28;20144;-82
2021/10/21 10:54:47;;;;;;;19.25;3.20;;;10.10;99.90;;;;;;5049390;28;20494;-81
2021/10/21 10:57:33;;;;;;;19.30;2.30;;;10.10;99.90;;;;;;5044918;28;20048;-80
2021/10/21 11:00:00;;;;;;;11.23;2.17;;;10.10;99.90;;;;;;5047145;28;20052;-81
2021/10/21 11:02:27;;;;;;;23.27;3.97;;;10.20;99.90;;;;;;5053660;28;20037;-84
2021/10/21 11:04:52;;;;;;;21.17;3.92;;;9.60;99.90;;;;;;5045942;28;20849;-83
2021/10/21 11:07:20;;;;;;;16.23;3.03;;;8.80;99.90;;;;;;5045365;28;20409;-81
2021/10/21 11:09:46;;;;;;;21.42;3.33;;;8.70;99.90;;;;;;5057931;28;20525;-81
2021/10/21 11:12:22;;;;;;;13.82;2.58;;;8.70;99.90;;;;;;5056955;28;20045;-81
2021/10/21 11:14:54;;;;;;;29.00;3.53;;;8.80;99.90;;;;;;5063700;28;20045;-81
2021/10/21 11:17:49;;;;;;;16.42;2.40;;;8.80;99.90;;;;;;5060160;28;20048;-81
2021/10/21 11:20:29;;;;;;;26.80;2.95;;;8.80;99.90;;;;;;5053401;28;20501;-81
2021/10/21 11:22:59;;;;;;;19.70;2.58;;;8.80;99.90;;;;;;5048169;28;20123;-81
2021/10/21 11:25:30;;;;;;;27.05;3.63;;;8.90;99.90;;;;;;5052071;28;20055;-81
2021/10/21 11:27:58;;;;;;;20.17;2.75;;;9.10;99.90;;;;;;5059137;28;20056;-85
2021/10/21 11:30:29;;;;;;;15.77;3.25;;;9.00;99.90;;;;;;5056836;28;20033;-84
2021/10/21 11:32:59;;;;;;;23.33;3.10;;;9.00;99.90;;;;;;5058211;28;20078;-84
2021/10/21 11:35:28;;;;;;;15.07;3.20;;;9.10;99.90;;;;;;5054815;28;20076;-84
2021/10/21 11:37:55;;;;;;;9.70;2.45;;;9.30;99.90;;;;;;5047330;28;20533;-81
2021/10/21 11:40:28;;;;;;;12.35;2.60;;;9.40;99.90;;;;;;5054751;28;20045;-81
2021/10/21 11:43:00;;;;;;;13.07;2.42;;;9.50;99.90;;;;;;5059438;28;20044;-84
2021/10/21 11:45:32;;;;;;;16.00;2.08;;;9.50;99.90;;;;;;5061143;28;20041;-80
2021/10/21 11:48:02;;;;;;;11.95;2.22;;;9.70;99.90;;;;;;5063313;28;20490;-82
2021/10/21 11:50:49;;;;;;;15.68;2.08;;;9.80;99.90;;;;;;5067014;28;20049;-82
2021/10/21 11:53:17;;;;;;;13.68;1.80;;;9.40;99.90;;;;;;5054897;28;20490;-81
2021/10/21 11:55:46;;;;;;;15.75;2.22;;;9.30;99.90;;;;;;5049951;28;20116;-80
2021/10/21 11:58:25;;;;;;;8.75;2.00;;;9.30;99.90;;;;;;5061882;28;20080;-81
2021/10/21 12:00:53;;;;;;;8.32;1.42;;;9.20;99.90;;;;;;5054350;28;20056;-80
2021/10/21 12:03:32;;;;;;;12.57;2.22;;;9.40;99.90;;;;;;5067914;28;20079;-80
2021/10/21 12:05:59;;;;;;;9.85;1.92;;;9.50;99.90;;;;;;5060156;28;20063;-86
2021/10/21 12:08:25;;;;;;;6.10;1.70;;;9.60;99.90;;;;;;5058264;28;20498;-84
2021/10/21 12:11:02;;;;;;;11.95;1.58;;;9.70;99.90;;;;;;5032849;28;20060;-85
2021/10/21 12:13:31;;;;;;;10.93;1.60;;;9.80;99.90;;;;;;5059399;28;20522;-85
2021/10/21 12:16:00;;;;;;;4.40;1.20;;;9.90;99.90;;;;;;5067050;28;20048;-86
2021/10/21 12:18:27;;;;;;;8.85;1.50;;;10.00;99.90;;;;;;5067891;28;20053;-85
2021/10/21 12:20:57;;;;;;;10.80;1.65;;;10.10;99.90;;;;;;5066519;28;20052;-85
2021/10/21 12:23:26;;;;;;;14.40;1.88;;;10.20;99.90;;;;;;5067576;28;20044;-85
2021/10/21 12:25:54;;;;;;;10.02;2.00;;;10.30;99.90;;;;;;5069401;28;20087;-85
2021/10/21 12:28:21;;;;;;;21.83;2.58;;;10.40;99.90;;;;;;5066507;28;20493;-86
2021/10/21 12:30:48;;;;;;;14.18;1.85;;;10.60;99.90;;;;;;5068627;28;20056;-85
2021/10/21 12:33:18;;;;;;;12.32;1.83;;;10.60;99.90;;;;;;5065595;28;20386;-85
2021/10/21 12:36:00;;;;;;;29.65;2.65;;;10.50;99.90;;;;;;5069779;28;20529;-86
2021/10/21 12:38:26;;;;;;;14.10;2.55;;;10.30;99.90;;;;;;5065943;28;20105;-85
2021/10/21 12:41:05;;;;;;;17.60;2.33;;;10.20;99.90;;;;;;5068168;28;20044;-85
2021/10/21 12:43:31;;;;;;;10.85;2.33;;;10.10;99.90;;;;;;5081240;28;20056;-85
2021/10/21 12:46:01;;;;;;;11.80;1.48;;;10.10;99.90;;;;;;5070328;28;20071;-85
2021/10/21 12:48:29;;;;;;;8.37;2.00;;;10.10;99.90;;;;;;5063708;28;20028;-86